Time;durP1;ratioP1;P1;durP2;ratioP2;P2;SDS_P1;SDS_P2;PMS_P1;PMS_P2;Temp;Humidity;BMP_temperature;BMP_pressure;BME280_temperature;BME280_humidity;BME280_pressure;Samples;Min_cycle;Max_cycle;Signal;HPM_P1;HPM_P2
2022/03/29 00:01:09;;;;;;;;;38.75;32.25;;;;;-146.03;100.00;60875.16;4969029;28;48811;-85
2022/03/29 00:03:34;;;;;;;;;29.25;27.50;;;;;-146.03;100.00;60875.16;4965249;28;45527;-85
2022/03/29 00:06:00;;;;;;;;;30.00;29.00;;;;;-146.03;100.00;60875.16;4962755;28;45838;-85
2022/03/29 00:08:25;;;;;;;;;34.75;30.75;;;;;-146.03;100.00;60875.16;4974786;28;45473;-85
2022/03/29 00:10:50;;;;;;;;;33.75;28.75;;;;;-146.03;100.00;60875.16;4968556;28;56503;-85
2022/03/29 00:13:16;;;;;;;;;30.00;29.50;;;;;-146.03;100.00;60875.16;4975043;28;45403;-85
2022/03/29 00:15:41;;;;;;;;;33.25;30.25;;;;;-146.03;100.00;60875.16;4969079;28;45496;-85
2022/03/29 00:18:07;;;;;;;;;37.50;31.25;;;;;-146.03;100.00;60875.16;4964729;28;45324;-84
2022/03/29 00:20:32;;;;;;;;;33.00;30.00;;;;;-146.03;100.00;60875.16;4964240;28;45469;-85
2022/03/29 00:22:58;;;;;;;;;36.50;30.25;;;;;-146.03;100.00;60875.16;4964102;28;45550;-85
2022/03/29 00:25:23;;;;;;;;;36.00;32.00;;;;;-146.03;100.00;60875.16;4973183;28;45534;-85
2022/03/29 00:27:49;;;;;;;;;38.75;33.50;;;;;-146.03;100.00;60875.16;4974694;28;45368;-85
2022/03/29 00:30:16;;;;;;;;;39.00;31.75;;;;;-146.03;100.00;60875.16;4974267;28;45501;-85
2022/03/29 00:32:43;;;;;;;;;37.50;32.00;;;;;-146.03;100.00;60875.16;4974332;28;45429;-84
2022/03/29 00:35:09;;;;;;;;;33.25;31.75;;;;;-146.03;100.00;60875.16;4974830;28;45516;-84
2022/03/29 00:37:36;;;;;;;;;40.50;33.25;;;;;-146.03;100.00;60875.16;4972436;28;45315;-84
2022/03/29 00:40:02;;;;;;;;;31.25;28.75;;;;;-146.03;100.00;60875.16;4974174;28;45612;-85
2022/03/29 00:42:28;;;;;;;;;31.75;30.25;;;;;-146.03;100.00;60875.16;4974672;28;45551;-85
2022/03/29 00:44:55;;;;;;;;;44.00;33.25;;;;;-146.03;100.00;60875.16;4970007;28;45431;-85
2022/03/29 00:47:21;;;;;;;;;40.00;33.50;;;;;-146.03;100.00;60875.16;4989886;28;45393;-86
2022/03/29 00:49:46;;;;;;;;;40.25;33.75;;;;;-146.03;100.00;60875.16;4964856;28;45399;-86
2022/03/29 00:52:11;;;;;;;;;38.00;34.00;;;;;-146.03;100.00;60875.16;4974091;28;46772;-85
2022/03/29 00:54:41;;;;;;;;;39.25;33.00;;;;;-146.03;100.00;60875.16;4966173;28;45667;-84
2022/03/29 00:57:07;;;;;;;;;41.75;34.75;;;;;-146.03;100.00;60875.16;4971508;28;45510;-84
2022/03/29 00:59:33;;;;;;;;;42.75;33.75;;;;;-146.03;100.00;60875.16;4968114;28;45478;-84
2022/03/29 01:01:58;;;;;;;;;34.50;30.00;;;;;-146.03;100.00;60875.16;4970493;28;45380;-85
2022/03/29 01:04:27;;;;;;;;;33.50;28.50;;;;;-146.03;100.00;60875.16;4959919;28;45582;-84
2022/03/29 01:06:57;;;;;;;;;32.50;29.00;;;;;-146.03;100.00;60875.16;4969348;28;45465;-84
2022/03/29 01:09:23;;;;;;;;;34.00;32.00;;;;;-146.03;100.00;60875.16;4974370;28;46418;-84
2022/03/29 01:11:49;;;;;;;;;37.00;30.50;;;;;-146.03;100.00;60875.16;4974601;28;45442;-85
2022/03/29 01:14:15;;;;;;;;;29.75;28.25;;;;;-146.03;100.00;60875.16;4974486;28;45453;-85
2022/03/29 01:19:25;;;;;;;;;36.25;30.50;;;;;-146.03;100.00;60875.16;4968037;28;45422;-84
2022/03/29 01:21:59;;;;;;;;;35.50;31.00;;;;;-146.03;100.00;60875.16;4963713;28;45640;-85
2022/03/29 01:24:25;;;;;;;;;38.00;32.25;;;;;-146.03;100.00;60875.16;4965230;28;45297;-85
2022/03/29 01:26:53;;;;;;;;;32.00;28.75;;;;;-146.03;100.00;60875.16;4973214;28;45803;-85
2022/03/29 01:29:20;;;;;;;;;33.50;30.00;;;;;-146.03;100.00;60875.16;4974067;28;45454;-83
2022/03/29 01:31:48;;;;;;;;;35.00;31.25;;;;;-146.03;100.00;60875.16;4975037;28;45374;-84
2022/03/29 01:34:14;;;;;;;;;32.75;30.50;;;;;-146.03;100.00;60875.16;4973371;28;45601;-85
2022/03/29 01:36:39;;;;;;;;;30.75;30.00;;;;;-146.03;100.00;60875.16;4973819;28;45453;-85
2022/03/29 01:39:05;;;;;;;;;33.50;30.00;;;;;-146.03;100.00;60875.16;4974029;28;46203;-82
2022/03/29 01:41:30;;;;;;;;;35.50;30.00;;;;;-146.03;100.00;60875.16;4961253;28;45467;-84
2022/03/29 01:43:56;;;;;;;;;37.25;29.75;;;;;-146.03;100.00;60875.16;4972270;28;45541;-83
2022/03/29 01:46:22;;;;;;;;;34.25;29.75;;;;;-146.03;100.00;60875.16;4974373;28;45640;-85
2022/03/29 01:48:48;;;;;;;;;34.00;30.00;;;;;-146.03;100.00;60875.16;4961731;28;46328;-84
2022/03/29 01:51:14;;;;;;;;;34.75;30.00;;;;;-146.03;100.00;60875.16;4963700;28;45430;-83
2022/03/29 01:53:40;;;;;;;;;36.75;33.00;;;;;-146.03;100.00;60875.16;4967615;28;45546;-84
2022/03/29 01:56:05;;;;;;;;;26.75;25.00;;;;;-146.03;100.00;60875.16;4967030;28;45242;-83
2022/03/29 01:58:31;;;;;;;;;30.75;28.75;;;;;-146.03;100.00;60875.16;4963898;28;45470;-83
2022/03/29 02:00:56;;;;;;;;;32.25;30.50;;;;;-146.03;100.00;60875.16;4972024;28;45414;-84
2022/03/29 02:03:22;;;;;;;;;33.50;29.00;;;;;-146.03;100.00;60875.16;4972514;28;45565;-83
2022/03/29 02:05:48;;;;;;;;;32.75;30.25;;;;;-146.03;100.00;60875.16;4969327;28;45469;-83
2022/03/29 02:08:14;;;;;;;;;30.50;27.25;;;;;-146.03;100.00;60875.16;4970139;28;46220;-85
2022/03/29 02:10:40;;;;;;;;;26.75;26.75;;;;;-146.03;100.00;60875.16;4972300;28;45319;-85
2022/03/29 02:13:09;;;;;;;;;34.00;30.00;;;;;-146.03;100.00;60875.16;4971371;28;45449;-85
2022/03/29 02:15:34;;;;;;;;;37.25;31.00;;;;;-146.03;100.00;60875.16;4970475;28;45672;-85
2022/03/29 02:18:00;;;;;;;;;31.75;27.75;;;;;-146.03;100.00;60875.16;4969925;28;45986;-86
2022/03/29 02:20:26;;;;;;;;;27.25;25.00;;;;;-146.03;100.00;60875.16;4970612;28;45296;-85
2022/03/29 02:22:51;;;;;;;;;28.75;26.25;;;;;-146.03;100.00;60875.16;4966408;28;45329;-84
2022/03/29 02:25:16;;;;;;;;;31.75;28.50;;;;;-146.03;100.00;60875.16;4971051;28;45675;-84
2022/03/29 02:27:44;;;;;;;;;33.25;29.50;;;;;-146.03;100.00;60875.16;4971887;28;46150;-84
2022/03/29 02:30:12;;;;;;;;;30.50;25.75;;;;;-146.03;100.00;60875.16;4967833;28;45537;-85
2022/03/29 02:32:39;;;;;;;;;28.00;26.00;;;;;-146.03;100.00;60875.16;4968619;28;46107;-85
2022/03/29 02:35:05;;;;;;;;;29.50;27.50;;;;;-146.03;100.00;60875.16;4971301;28;45553;-85
2022/03/29 02:37:31;;;;;;;;;31.00;23.25;;;;;-146.03;100.00;60875.16;4972528;28;46975;-84
2022/03/29 02:39:56;;;;;;;;;33.25;28.00;;;;;-146.03;100.00;60875.16;4966833;28;45479;-84
2022/03/29 02:42:21;;;;;;;;;30.50;28.25;;;;;-146.03;100.00;60875.16;4969689;28;45435;-84
2022/03/29 02:44:47;;;;;;;;;27.00;27.00;;;;;-146.03;100.00;60875.16;4965921;28;45749;-85
2022/03/29 02:47:12;;;;;;;;;27.50;24.50;;;;;-146.03;100.00;60875.16;4969113;28;46040;-86
2022/03/29 02:49:37;;;;;;;;;29.00;26.50;;;;;-146.03;100.00;60875.16;4960637;28;45453;-85
2022/03/29 02:52:04;;;;;;;;;34.00;27.50;;;;;-146.03;100.00;60875.16;4971555;28;48426;-84
2022/03/29 02:54:29;;;;;;;;;32.50;27.25;;;;;-146.03;100.00;60875.16;4968129;28;45482;-83
2022/03/29 02:56:55;;;;;;;;;37.75;31.25;;;;;-146.03;100.00;60875.16;4972133;28;46620;-84
2022/03/29 02:59:20;;;;;;;;;34.00;29.00;;;;;-146.03;100.00;60875.16;4957796;28;45348;-84
2022/03/29 03:01:45;;;;;;;;;39.50;29.25;;;;;-146.03;100.00;60875.16;4958743;28;58315;-83
2022/03/29 03:04:13;;;;;;;;;37.75;30.50;;;;;-146.03;100.00;60875.16;4962562;28;51373;-83
2022/03/29 03:06:42;;;;;;;;;36.25;30.75;;;;;-146.03;100.00;60875.16;4964046;28;45328;-83
2022/03/29 03:09:08;;;;;;;;;33.75;29.50;;;;;-146.03;100.00;60875.16;4972570;28;45474;-83
2022/03/29 03:11:35;;;;;;;;;32.25;27.75;;;;;-146.03;100.00;60875.16;4976019;28;45388;-83
2022/03/29 03:14:00;;;;;;;;;33.75;30.00;;;;;-146.03;100.00;60875.16;4973522;28;45421;-83
2022/03/29 03:16:26;;;;;;;;;32.75;31.25;;;;;-146.03;100.00;60875.16;4972290;28;46318;-83
2022/03/29 03:18:51;;;;;;;;;28.00;26.75;;;;;-146.03;100.00;60875.16;4968015;28;46024;-83
2022/03/29 03:21:16;;;;;;;;;36.25;29.50;;;;;-146.03;100.00;60875.16;4970822;28;45537;-83
2022/03/29 03:23:42;;;;;;;;;29.25;24.50;;;;;-146.03;100.00;60875.16;4973855;28;45541;-84
2022/03/29 03:26:07;;;;;;;;;32.00;28.00;;;;;-146.03;100.00;60875.16;4975407;28;46604;-83
2022/03/29 03:28:33;;;;;;;;;31.25;29.50;;;;;-146.03;100.00;60875.16;4962690;28;45493;-84
2022/03/29 03:30:58;;;;;;;;;33.00;27.75;;;;;-146.03;100.00;60875.16;4963839;28;45379;-84
2022/03/29 03:33:23;;;;;;;;;34.50;30.00;;;;;-146.03;100.00;60875.16;4963250;28;46826;-83
2022/03/29 03:35:49;;;;;;;;;26.75;26.75;;;;;-146.03;100.00;60875.16;4961697;28;46236;-84
2022/03/29 03:38:14;;;;;;;;;32.75;30.00;;;;;-146.03;100.00;60875.16;4959661;28;49989;-84
2022/03/29 03:40:41;;;;;;;;;31.00;29.50;;;;;-146.03;100.00;60875.16;4962364;28;45326;-84
2022/03/29 03:43:07;;;;;;;;;37.50;29.50;;;;;-146.03;100.00;60875.16;4963288;28;45624;-84
2022/03/29 03:45:32;;;;;;;;;36.25;31.75;;;;;-146.03;100.00;60875.16;4959955;28;45431;-83
2022/03/29 03:47:58;;;;;;;;;38.75;30.75;;;;;-146.03;100.00;60875.16;4960183;28;45509;-83
2022/03/29 03:50:23;;;;;;;;;35.00;29.50;;;;;-146.03;100.00;60875.16;4959950;28;45502;-83
2022/03/29 03:52:51;;;;;;;;;29.50;27.25;;;;;-146.03;100.00;60875.16;4957414;28;45235;-83
2022/03/29 03:55:18;;;;;;;;;30.50;29.50;;;;;-146.03;100.00;60875.16;4962762;28;47003;-83
2022/03/29 03:57:44;;;;;;;;;25.25;22.25;;;;;-146.03;100.00;60875.16;4962682;28;45550;-83
2022/03/29 04:00:11;;;;;;;;;25.25;23.25;;;;;-146.03;100.00;60875.16;4962228;28;45607;-83
2022/03/29 04:02:36;;;;;;;;;26.25;24.75;;;;;-146.03;100.00;60875.16;4960179;28;45564;-83
2022/03/29 04:05:02;;;;;;;;;27.25;24.50;;;;;-146.03;100.00;60875.16;4960301;28;45573;-84
2022/03/29 04:07:28;;;;;;;;;29.25;24.50;;;;;-146.03;100.00;60875.16;4962483;28;45478;-83
2022/03/29 04:09:54;;;;;;;;;26.50;25.75;;;;;-146.03;100.00;60875.16;4962716;28;45711;-83
2022/03/29 04:12:19;;;;;;;;;24.50;23.75;;;;;-146.03;100.00;60875.16;4962671;28;45396;-84
2022/03/29 04:14:45;;;;;;;;;27.00;24.50;;;;;-146.03;100.00;60875.16;4960882;28;46243;-83
2022/03/29 04:17:11;;;;;;;;;26.25;23.75;;;;;-146.03;100.00;60875.16;4959724;28;45372;-83
2022/03/29 04:19:36;;;;;;;;;27.75;25.25;;;;;-146.03;100.00;60875.16;4960938;28;45503;-83
2022/03/29 04:22:02;;;;;;;;;24.00;22.50;;;;;-146.03;100.00;60875.16;4962255;28;45359;-83
2022/03/29 04:24:28;;;;;;;;;24.50;23.00;;;;;-146.03;100.00;60875.16;4959503;28;46053;-84
2022/03/29 04:26:53;;;;;;;;;24.50;23.75;;;;;-146.03;100.00;60875.16;4959717;28;45543;-83
2022/03/29 04:29:19;;;;;;;;;20.50;18.00;;;;;-146.03;100.00;60875.16;4958681;28;45477;-83
2022/03/29 04:31:44;;;;;;;;;26.50;25.00;;;;;-146.03;100.00;60875.16;4956537;28;46016;-83
2022/03/29 04:34:09;;;;;;;;;25.75;23.75;;;;;-146.03;100.00;60875.16;4958765;28;46221;-83
2022/03/29 04:36:35;;;;;;;;;30.00;25.00;;;;;-146.03;100.00;60875.16;4959421;28;45501;-83
2022/03/29 04:39:00;;;;;;;;;31.00;24.00;;;;;-146.03;100.00;60875.16;4959381;28;45380;-83
2022/03/29 04:41:26;;;;;;;;;24.75;24.25;;;;;-146.03;100.00;60875.16;4959137;28;45269;-83
2022/03/29 04:43:51;;;;;;;;;32.00;26.50;;;;;-146.03;100.00;60875.16;4956237;28;46244;-84
2022/03/29 04:46:17;;;;;;;;;26.00;24.50;;;;;-146.03;100.00;60875.16;4958562;28;45445;-83
2022/03/29 04:48:43;;;;;;;;;27.00;23.50;;;;;-146.03;100.00;60875.16;4957251;28;45439;-83
2022/03/29 04:51:09;;;;;;;;;25.25;25.25;;;;;-146.03;100.00;60875.16;4958449;28;45473;-83
2022/03/29 04:53:34;;;;;;;;;28.00;24.50;;;;;-146.03;100.00;60875.16;4958707;28;46167;-83
2022/03/29 04:56:00;;;;;;;;;33.25;27.75;;;;;-146.03;100.00;60875.16;4956532;28;45251;-85
2022/03/29 04:58:25;;;;;;;;;29.00;22.00;;;;;-146.03;100.00;60875.16;4958106;28;45532;-85
2022/03/29 05:00:51;;;;;;;;;27.25;22.75;;;;;-146.03;100.00;60875.16;4958648;28;45504;-84
2022/03/29 05:03:16;;;;;;;;;31.00;26.25;;;;;-146.03;100.00;60875.16;4958467;28;45434;-85
2022/03/29 05:05:42;;;;;;;;;31.75;25.50;;;;;-146.03;100.00;60875.16;4957758;28;45364;-85
2022/03/29 05:08:08;;;;;;;;;28.50;25.00;;;;;-146.03;100.00;60875.16;4956248;28;45361;-85
2022/03/29 05:10:33;;;;;;;;;27.25;25.25;;;;;-146.03;100.00;60875.16;4958365;28;45339;-85
2022/03/29 05:12:58;;;;;;;;;24.25;22.25;;;;;-146.03;100.00;60875.16;4957865;28;45514;-85
2022/03/29 05:15:24;;;;;;;;;23.50;23.00;;;;;-146.03;100.00;60875.16;4958190;28;45490;-84
2022/03/29 05:17:49;;;;;;;;;30.75;22.50;;;;;-146.03;100.00;60875.16;4958485;28;45336;-84
2022/03/29 05:20:16;;;;;;;;;30.25;27.50;;;;;-146.03;100.00;60875.16;4972067;28;45429;-84
2022/03/29 05:22:50;;;;;;;;;28.75;23.75;;;;;-146.03;100.00;60875.16;4956654;28;46209;-84
2022/03/29 05:25:17;;;;;;;;;25.50;23.25;;;;;-146.03;100.00;60875.16;4958421;28;45461;-84
2022/03/29 05:27:43;;;;;;;;;31.75;27.50;;;;;-146.03;100.00;60875.16;4957148;28;45770;-84
2022/03/29 05:30:10;;;;;;;;;34.75;27.25;;;;;-146.03;100.00;60875.16;4958554;28;45538;-84
2022/03/29 05:32:36;;;;;;;;;26.75;23.25;;;;;-146.03;100.00;60875.16;4958614;28;45539;-84
2022/03/29 05:35:03;;;;;;;;;23.75;20.00;;;;;-146.03;100.00;60875.16;4956731;28;45363;-84
2022/03/29 05:37:28;;;;;;;;;25.00;21.25;;;;;-146.03;100.00;60875.16;4958598;28;45425;-84
2022/03/29 05:39:53;;;;;;;;;31.50;29.00;;;;;-146.03;100.00;60875.16;4957106;28;45489;-84
2022/03/29 05:42:19;;;;;;;;;32.00;30.25;;;;;-146.03;100.00;60875.16;4956521;28;48137;-84
2022/03/29 05:44:45;;;;;;;;;34.75;29.25;;;;;-146.03;100.00;60875.16;4958127;28;45513;-83
2022/03/29 05:49:54;;;;;;;;;30.50;24.25;;;;;-146.03;100.00;60875.16;4971967;28;45389;-84
2022/03/29 05:52:21;;;;;;;;;28.25;26.50;;;;;-146.03;100.00;60875.16;4958310;28;46320;-84
2022/03/29 05:54:46;;;;;;;;;24.50;23.00;;;;;-146.03;100.00;60875.16;4957599;28;45641;-83
2022/03/29 05:57:16;;;;;;;;;26.75;25.25;;;;;-146.03;100.00;60875.16;4958424;28;45301;-84
2022/03/29 05:59:43;;;;;;;;;30.25;26.25;;;;;-146.03;100.00;60875.16;4958031;28;45530;-84
2022/03/29 06:02:08;;;;;;;;;31.75;25.25;;;;;-146.03;100.00;60875.16;4960497;28;47457;-84
2022/03/29 06:04:35;;;;;;;;;28.00;25.75;;;;;-146.03;100.00;60875.16;4960458;28;45300;-84
2022/03/29 06:07:02;;;;;;;;;26.75;24.75;;;;;-146.03;100.00;60875.16;4960890;28;45385;-84
2022/03/29 06:09:27;;;;;;;;;30.50;23.50;;;;;-146.03;100.00;60875.16;4963635;28;45380;-84
2022/03/29 06:11:53;;;;;;;;;22.00;20.75;;;;;-146.03;100.00;60875.16;4969681;28;45540;-84
2022/03/29 06:14:18;;;;;;;;;18.75;17.25;;;;;-146.03;100.00;60875.16;4957568;28;45193;-84
2022/03/29 06:16:44;;;;;;;;;31.75;27.00;;;;;-146.03;100.00;60875.16;4959428;28;45413;-84
2022/03/29 06:19:10;;;;;;;;;28.00;24.75;;;;;-146.03;100.00;60875.16;4961468;28;45458;-83
2022/03/29 06:21:37;;;;;;;;;32.75;26.75;;;;;-146.03;100.00;60875.16;4961032;28;47088;-83
2022/03/29 06:24:04;;;;;;;;;28.75;25.50;;;;;-146.03;100.00;60875.16;4960440;28;45441;-84
2022/03/29 06:26:30;;;;;;;;;24.25;23.50;;;;;-146.03;100.00;60875.16;4957551;28;45404;-84
2022/03/29 06:28:56;;;;;;;;;22.00;22.00;;;;;-146.03;100.00;60875.16;4973362;28;45225;-84
2022/03/29 06:31:21;;;;;;;;;30.75;29.75;;;;;-146.03;100.00;60875.16;4959621;28;46301;-83
2022/03/29 06:33:47;;;;;;;;;29.00;27.75;;;;;-146.03;100.00;60875.16;4962123;28;45550;-84
2022/03/29 06:36:13;;;;;;;;;28.00;26.50;;;;;-146.03;100.00;60875.16;4963205;28;45490;-84
2022/03/29 06:38:38;;;;;;;;;23.50;22.50;;;;;-146.03;100.00;60875.16;4970541;28;45439;-86
2022/03/29 06:41:04;;;;;;;;;27.75;23.00;;;;;-146.03;100.00;60875.16;4968205;28;46625;-86
2022/03/29 06:43:29;;;;;;;;;29.00;27.75;;;;;-146.03;100.00;60875.16;4964633;28;45439;-83
2022/03/29 06:45:55;;;;;;;;;30.25;27.25;;;;;-146.03;100.00;60875.16;4971935;28;45450;-86
2022/03/29 06:48:21;;;;;;;;;26.00;24.75;;;;;-146.03;100.00;60875.16;4967355;28;45499;-85
2022/03/29 06:50:46;;;;;;;;;23.25;22.75;;;;;-146.03;100.00;60875.16;4961788;28;46506;-83
2022/03/29 06:53:12;;;;;;;;;30.50;26.75;;;;;-146.03;100.00;60875.16;4962052;28;45455;-86
2022/03/29 06:55:37;;;;;;;;;26.00;24.25;;;;;-146.03;100.00;60875.16;4974450;28;45585;-87
2022/03/29 06:58:03;;;;;;;;;31.00;25.50;;;;;-146.03;100.00;60875.16;4971444;28;45502;-86
2022/03/29 07:00:29;;;;;;;;;30.25;26.50;;;;;-146.03;100.00;60875.16;4968315;28;46628;-87
2022/03/29 07:02:54;;;;;;;;;32.75;28.75;;;;;-146.03;100.00;60875.16;4972863;28;45442;-87
2022/03/29 07:05:20;;;;;;;;;30.25;24.50;;;;;-146.03;100.00;60875.16;4973336;28;45588;-86
2022/03/29 07:07:46;;;;;;;;;30.00;24.25;;;;;-146.03;100.00;60875.16;4969518;28;45566;-86
2022/03/29 07:13:01;;;;;;;;;28.75;25.25;;;;;-146.03;100.00;60875.16;4965310;28;45443;-86
2022/03/29 07:15:30;;;;;;;;;28.25;25.25;;;;;-146.03;100.00;60875.16;4964537;28;45554;-86
2022/03/29 07:17:56;;;;;;;;;33.75;30.50;;;;;-146.03;100.00;60875.16;4967142;28;45586;-86
2022/03/29 07:20:22;;;;;;;;;34.00;32.00;;;;;-146.03;100.00;60875.16;4958429;28;46132;-84
2022/03/29 07:22:49;;;;;;;;;40.50;31.75;;;;;-146.03;100.00;60875.16;4960034;28;45325;-84
2022/03/29 07:25:18;;;;;;;;;30.50;26.25;;;;;-146.03;100.00;60875.16;4960289;28;45393;-84
2022/03/29 07:27:44;;;;;;;;;25.25;22.75;;;;;-146.03;100.00;60875.16;4963872;28;45529;-84
2022/03/29 07:30:10;;;;;;;;;35.75;31.25;;;;;-146.03;100.00;60875.16;4966866;28;45692;-85
2022/03/29 07:32:44;;;;;;;;;28.75;27.50;;;;;-146.03;100.00;60875.16;4983244;28;45653;-84
2022/03/29 07:35:10;;;;;;;;;36.00;28.75;;;;;-146.03;100.00;60875.16;4962523;28;45538;-84
2022/03/29 07:37:35;;;;;;;;;31.50;28.75;;;;;-146.03;100.00;60875.16;4961778;28;45587;-84
2022/03/29 07:40:00;;;;;;;;;31.75;30.25;;;;;-146.03;100.00;60875.16;4962895;28;47123;-86
2022/03/29 07:42:26;;;;;;;;;38.50;30.75;;;;;-146.03;100.00;60875.16;4959649;28;48979;-86
2022/03/29 07:44:51;;;;;;;;;32.25;29.00;;;;;-146.03;100.00;60875.16;4972247;28;45469;-86
2022/03/29 07:47:19;;;;;;;;;33.25;28.75;;;;;-146.03;100.00;60875.16;4968145;28;45653;-86
2022/03/29 07:49:45;;;;;;;;;32.25;30.25;;;;;-146.03;100.00;60875.16;4961780;28;46248;-86
2022/03/29 07:52:10;;;;;;;;;31.00;29.00;;;;;-146.03;100.00;60875.16;4962459;28;45526;-86
2022/03/29 07:54:35;;;;;;;;;34.50;28.50;;;;;-146.03;100.00;60875.16;4960711;28;47635;-85
2022/03/29 07:57:01;;;;;;;;;28.25;25.75;;;;;-146.03;100.00;60875.16;4970682;28;45502;-85
2022/03/29 07:59:27;;;;;;;;;34.50;30.75;;;;;-146.03;100.00;60875.16;4970160;28;45359;-85
2022/03/29 08:01:54;;;;;;;;;33.75;29.25;;;;;-146.03;100.00;60875.16;4974668;28;45509;-86
2022/03/29 08:04:19;;;;;;;;;30.25;28.75;;;;;-146.03;100.00;60875.16;4970397;28;45478;-85
2022/03/29 08:06:44;;;;;;;;;39.25;32.50;;;;;-146.03;100.00;60875.16;4967736;28;45345;-85
2022/03/29 08:09:09;;;;;;;;;38.00;30.00;;;;;-146.03;100.00;60875.16;4967391;28;46053;-85
2022/03/29 08:11:36;;;;;;;;;41.00;32.75;;;;;-146.03;100.00;60875.16;4974736;28;45471;-85
2022/03/29 08:14:02;;;;;;;;;39.50;31.75;;;;;-146.03;100.00;60875.16;4977171;28;45394;-85
2022/03/29 08:16:28;;;;;;;;;35.50;30.75;;;;;-146.03;100.00;60875.16;4959513;28;45408;-85
2022/03/29 08:18:55;;;;;;;;;31.00;30.00;;;;;-146.03;100.00;60875.16;4971584;28;46816;-85
2022/03/29 08:24:04;;;;;;;;;35.50;32.25;;;;;-146.03;100.00;60875.16;4969444;28;45371;-85
2022/03/29 08:26:30;;;;;;;;;38.25;31.25;;;;;-146.03;100.00;60875.16;4973566;28;45312;-86
2022/03/29 08:28:56;;;;;;;;;29.25;26.50;;;;;-146.03;100.00;60875.16;4961301;28;45907;-85
2022/03/29 08:31:22;;;;;;;;;34.25;30.75;;;;;-146.03;100.00;60875.16;4978818;28;45691;-85
2022/03/29 08:33:47;;;;;;;;;39.25;32.25;;;;;-146.03;100.00;60875.16;4977863;28;45329;-85
2022/03/29 08:36:13;;;;;;;;;35.50;32.00;;;;;-146.03;100.00;60875.16;4972823;28;45357;-85
2022/03/29 08:38:38;;;;;;;;;36.25;31.75;;;;;-146.03;100.00;60875.16;4960426;28;46049;-85
2022/03/29 08:41:05;;;;;;;;;37.50;32.25;;;;;-146.03;100.00;60875.16;4971274;28;45394;-85
2022/03/29 08:43:31;;;;;;;;;39.00;31.50;;;;;-146.03;100.00;60875.16;4976274;28;45463;-85
2022/03/29 08:45:57;;;;;;;;;37.50;32.25;;;;;-146.03;100.00;60875.16;4973993;28;45336;-85
2022/03/29 08:48:25;;;;;;;;;32.50;30.25;;;;;-146.03;100.00;60875.16;4966465;28;45355;-86
2022/03/29 08:50:52;;;;;;;;;32.75;28.75;;;;;-146.03;100.00;60875.16;4962735;28;45482;-85
2022/03/29 08:53:20;;;;;;;;;38.00;32.75;;;;;-146.03;100.00;60875.16;4975321;28;45431;-85
2022/03/29 08:55:46;;;;;;;;;34.75;30.00;;;;;-146.03;100.00;60875.16;4957220;28;45395;-86
2022/03/29 08:58:12;;;;;;;;;39.25;31.00;;;;;-146.03;100.00;60875.16;4967027;28;48438;-85
2022/03/29 09:00:38;;;;;;;;;38.25;30.00;;;;;-146.03;100.00;60875.16;4973405;28;45494;-85
2022/03/29 09:03:03;;;;;;;;;37.00;31.75;;;;;-146.03;100.00;60875.16;4968116;28;45478;-84
2022/03/29 09:05:30;;;;;;;;;37.25;32.50;;;;;-146.03;100.00;60875.16;4970031;28;45299;-84
2022/03/29 09:08:02;;;;;;;;;38.50;32.75;;;;;-146.03;100.00;60875.16;4973650;28;45637;-85
2022/03/29 09:10:50;;;;;;;;;36.00;30.50;;;;;-146.03;100.00;60875.16;4965828;28;45561;-84
2022/03/29 09:13:20;;;;;;;;;27.25;26.00;;;;;-146.03;100.00;60875.16;4962227;28;45272;-85
2022/03/29 09:15:47;;;;;;;;;38.25;32.00;;;;;-146.03;100.00;60875.16;4974417;28;45459;-85
2022/03/29 09:18:13;;;;;;;;;34.00;31.00;;;;;-146.03;100.00;60875.16;4976213;28;45387;-85
2022/03/29 09:20:39;;;;;;;;;34.75;32.75;;;;;-146.03;100.00;60875.16;4958361;28;45791;-84
2022/03/29 09:23:05;;;;;;;;;35.25;30.75;;;;;-146.03;100.00;60875.16;4980705;28;45379;-85
2022/03/29 09:25:38;;;;;;;;;40.75;32.50;;;;;-146.03;100.00;60875.16;4965332;28;45496;-85
2022/03/29 09:28:10;;;;;;;;;38.25;33.75;;;;;-146.03;100.00;60875.16;4958903;28;45466;-85
2022/03/29 09:30:40;;;;;;;;;43.25;34.25;;;;;-146.03;100.00;60875.16;4959294;28;45420;-85
2022/03/29 09:33:09;;;;;;;;;34.50;32.25;;;;;-146.03;100.00;60875.16;4968102;28;45479;-85
2022/03/29 09:35:51;;;;;;;;;31.50;27.75;;;;;-146.03;100.00;60875.16;4970990;28;45479;-85
2022/03/29 09:38:24;;;;;;;;;34.25;27.50;;;;;-146.03;100.00;60875.16;4969482;28;46326;-85
2022/03/29 09:40:50;;;;;;;;;28.00;26.00;;;;;-146.03;100.00;60875.16;4966910;28;45495;-84
2022/03/29 09:43:15;;;;;;;;;35.50;29.00;;;;;-146.03;100.00;60875.16;4966359;28;45512;-84
2022/03/29 09:45:47;;;;;;;;;31.25;30.25;;;;;-146.03;100.00;60875.16;4966677;28;45685;-84
2022/03/29 09:48:18;;;;;;;;;35.00;27.00;;;;;-146.03;100.00;60875.16;4960817;28;45412;-84
2022/03/29 09:50:44;;;;;;;;;35.50;30.50;;;;;-146.03;100.00;60875.16;4981289;28;45609;-85
2022/03/29 09:53:37;;;;;;;;;34.25;30.75;;;;;-146.03;100.00;60875.16;4959885;28;45525;-85
2022/03/29 09:56:04;;;;;;;;;40.25;31.50;;;;;-146.03;100.00;60875.16;4961252;28;45423;-84
2022/03/29 09:58:30;;;;;;;;;33.25;31.25;;;;;-146.03;100.00;60875.16;4966270;28;46386;-84
2022/03/29 10:00:56;;;;;;;;;36.50;33.25;;;;;-146.03;100.00;60875.16;4963534;28;45567;-83
2022/03/29 10:03:24;;;;;;;;;36.50;30.75;;;;;-146.03;100.00;60875.16;4967751;28;45289;-84
2022/03/29 10:05:50;;;;;;;;;38.25;35.25;;;;;-146.03;100.00;60875.16;4966171;28;45415;-84
2022/03/29 10:11:04;;;;;;;;;30.00;27.50;;;;;-146.03;100.00;60875.16;4966564;28;45462;-83
2022/03/29 10:13:30;;;;;;;;;23.50;21.25;;;;;-146.03;100.00;60875.16;4960789;28;45544;-82
2022/03/29 10:15:56;;;;;;;;;37.25;31.25;;;;;-146.03;100.00;60875.16;4962101;28;45505;-82
2022/03/29 10:18:25;;;;;;;;;44.75;36.50;;;;;-146.03;100.00;60875.16;4962910;28;45406;-83
2022/03/29 10:20:52;;;;;;;;;30.50;30.50;;;;;-146.03;100.00;60875.16;4969206;28;45354;-83
2022/03/29 10:23:21;;;;;;;;;30.25;28.25;;;;;-146.03;100.00;60875.16;4963095;28;45791;-83
2022/03/29 10:25:48;;;;;;;;;33.25;29.75;;;;;-146.03;100.00;60875.16;4964103;28;45253;-83
2022/03/29 10:28:13;;;;;;;;;35.75;31.00;;;;;-146.03;100.00;60875.16;4966661;28;47267;-83
2022/03/29 10:30:41;;;;;;;;;31.50;27.50;;;;;-146.03;100.00;60875.16;4963210;28;45702;-84
2022/03/29 10:33:19;;;;;;;;;37.25;34.00;;;;;-146.03;100.00;60875.16;4963423;28;45534;-83
2022/03/29 10:36:11;;;;;;;;;42.00;31.00;;;;;-146.03;100.00;60875.16;4966034;28;45508;-84
2022/03/29 10:38:48;;;;;;;;;30.00;26.75;;;;;-146.03;100.00;60875.16;4978391;28;48019;-84
2022/03/29 10:41:43;;;;;;;;;39.50;33.50;;;;;-146.03;100.00;60875.16;4960122;28;45418;-84
2022/03/29 10:44:14;;;;;;;;;29.75;28.25;;;;;-146.03;100.00;60875.16;4959808;28;45360;-84
2022/03/29 10:46:45;;;;;;;;;47.00;36.00;;;;;-146.03;100.00;60875.16;4960340;28;45855;-84
2022/03/29 10:49:17;;;;;;;;;36.75;34.00;;;;;-146.03;100.00;60875.16;4962816;28;45838;-83
2022/03/29 10:51:43;;;;;;;;;53.75;42.00;;;;;-146.03;100.00;60875.16;4966446;28;45735;-84
2022/03/29 10:54:23;;;;;;;;;50.75;40.25;;;;;-146.03;100.00;60875.16;4966140;28;45380;-84
2022/03/29 10:57:07;;;;;;;;;38.50;34.00;;;;;-146.03;100.00;60875.16;4962277;28;45433;-84
2022/03/29 10:59:34;;;;;;;;;40.00;34.75;;;;;-146.03;100.00;60875.16;4960454;28;45475;-84
2022/03/29 11:02:20;;;;;;;;;48.25;37.25;;;;;-146.03;100.00;60875.16;4970983;28;45304;-83
2022/03/29 11:05:06;;;;;;;;;45.50;36.75;;;;;-146.03;100.00;60875.16;4974035;28;45347;-84
2022/03/29 11:07:36;;;;;;;;;44.25;35.50;;;;;-146.03;100.00;60875.16;4960109;28;45407;-84